ROMMA est une association bénévole à but non lucratif. Votre soutien est indispensable : ADHERER à ROMMA ou FAIRE un DON

Saint-Laurent-du-Pont - (38, Isère)

Chartreuse (410 m)   Longitude: 05° 43' 24" E   Latitude: 45° 23' 14" N Station partenaire n°156
 

Détail journalier du     <<     >>

Température Precipitation Humidité Pression Vent Dir Rafale Dir. rafale
Heure (°C) (mm) (%) (hPa) (km/h) (km/h)
01:00 13.009710132ENE5E
02:00 12.809710121ENE5E
03:00 13.409610122SSE11NO
04:00 13.209710122E6SE
05:00 14.10.49510122NE11O
06:00 13.82.49610123ENE8S
07:00 13.639710122SSE6N
08:00 13.63.89710122NE6ENE
09:00 13.309710112E6ONO
10:00 14.209710112N6SSE
11:00 16.209310103NE10E
12:00 18.608410106NNE16N
13:00 21.106010098ENE32SSE
14:00 21.605710088S34SSO
15:00 22.205610078S35S
16:00 22.2052100710SSO32SO
17:00 21.805410086E31S
18:00 21.7053100811ENE35ENE
19:00 21.905210078ESE31S
20:00 22.1053100913S48S
21:00 22.0053100813S39SSO
22:00 21.9051100814S40S
23:00 21.8053100817S50SSO
minuit 22.0049100815S50SO

Graphique du 19-10-2019

 

Serveur OMMA